createdAt,value
2023-01-29T00:00:12.442Z,101300.41
2023-01-29T00:00:59.674Z,101299.59
2023-01-29T00:01:45.934Z,101293.31
2023-01-29T00:02:34.938Z,101297.13
2023-01-29T00:03:21.034Z,101294.13
2023-01-29T00:04:07.770Z,101299.34
2023-01-29T00:04:48.415Z,101301.25
2023-01-29T00:05:36.162Z,101301.25
2023-01-29T00:06:21.867Z,101292.81
2023-01-29T00:07:05.800Z,101288.19
2023-01-29T00:07:49.478Z,101287.34
2023-01-29T00:08:34.969Z,101288.69
2023-01-29T00:09:19.297Z,101284.56
2023-01-29T00:10:00.850Z,101283.25
2023-01-29T00:10:46.175Z,101278.38
2023-01-29T00:11:29.644Z,101282.91
2023-01-29T00:12:13.410Z,101282.09
2023-01-29T00:12:58.725Z,101287.53
2023-01-29T00:13:46.421Z,101269.03
2023-01-29T00:14:34.460Z,101269.03
2023-01-29T00:15:20.011Z,101278.28
2023-01-29T00:16:05.108Z,101270.69
2023-01-29T00:16:49.733Z,101266.06
2023-01-29T00:17:33.911Z,101269.88
2023-01-29T00:18:20.979Z,101274.75
2023-01-29T00:19:05.158Z,101269.28
2023-01-29T00:19:46.868Z,101270.94
2023-01-29T00:20:34.625Z,101267.72
2023-01-29T00:21:19.009Z,101272.09
2023-01-29T00:22:03.401Z,101270.75
2023-01-29T00:22:46.092Z,101262.00
2023-01-29T00:23:30.925Z,101260.88
2023-01-29T00:24:14.253Z,101257.06
2023-01-29T00:24:56.679Z,101266.38
2023-01-29T00:25:41.734Z,101258.72
2023-01-29T00:26:26.244Z,101259.22
2023-01-29T00:27:11.428Z,101260.63
2023-01-29T00:27:55.226Z,101264.41
2023-01-29T00:28:39.713Z,101254.34
2023-01-29T00:29:26.942Z,101259.28
2023-01-29T00:30:08.827Z,101252.94
2023-01-29T00:30:52.811Z,101259.78
2023-01-29T00:31:37.844Z,101251.88
2023-01-29T00:32:22.723Z,101256.25
2023-01-29T00:33:06.468Z,101254.09
2023-01-29T00:33:52.499Z,101256.81
2023-01-29T00:34:35.264Z,101262.00
2023-01-29T00:35:22.172Z,101257.63
2023-01-29T00:36:07.250Z,101253.28
2023-01-29T00:36:52.279Z,101263.16
2023-01-29T00:37:37.313Z,101258.97
2023-01-29T00:38:22.397Z,101262.97
2023-01-29T00:39:13.390Z,101262.13
2023-01-29T00:39:58.516Z,101260.22
2023-01-29T00:40:45.309Z,101263.28
2023-01-29T00:41:33.255Z,101262.69
2023-01-29T00:42:19.550Z,101262.97
2023-01-29T00:43:05.947Z,101259.84
2023-01-29T00:43:50.805Z,101259.22
2023-01-29T00:44:37.675Z,101252.69
2023-01-29T00:45:22.193Z,101256.50
2023-01-29T00:46:10.336Z,101254.53
2023-01-29T00:47:00.660Z,101257.50
2023-01-29T00:47:47.388Z,101260.75
2023-01-29T00:48:37.361Z,101257.19
2023-01-29T00:49:27.716Z,101261.81
2023-01-29T00:50:14.720Z,101254.72
2023-01-29T00:51:00.315Z,101257.44
2023-01-29T00:51:46.828Z,101256.88
2023-01-29T00:52:38.299Z,101259.91
2023-01-29T00:53:24.810Z,101254.72
2023-01-29T00:54:10.287Z,101254.72
2023-01-29T00:54:56.881Z,101257.69
2023-01-29T00:55:43.047Z,101260.66
2023-01-29T00:56:28.237Z,101267.75
2023-01-29T00:57:14.375Z,101260.16
2023-01-29T00:57:59.480Z,101256.88
2023-01-29T00:58:44.824Z,101262.88
2023-01-29T00:59:30.383Z,101263.47
2023-01-29T01:00:15.922Z,101262.69
2023-01-29T01:01:01.418Z,101267.41
2023-01-29T01:01:46.839Z,101260.81
2023-01-29T01:02:35.032Z,101256.75
2023-01-29T01:03:22.356Z,101261.69
2023-01-29T01:04:09.063Z,101264.03
2023-01-29T01:04:56.802Z,101268.66
2023-01-29T01:05:42.096Z,101266.56
2023-01-29T01:06:28.383Z,101266.81
2023-01-29T01:08:05.647Z,101257.00
2023-01-29T01:08:50.566Z,101257.25
2023-01-29T01:09:35.090Z,101260.56
2023-01-29T01:10:17.171Z,101265.25
2023-01-29T01:10:59.880Z,101259.78
2023-01-29T01:11:44.234Z,101267.41
2023-01-29T01:12:27.095Z,101260.56
2023-01-29T01:13:11.071Z,101263.47
2023-01-29T01:13:56.028Z,101264.59
2023-01-29T01:15:21.147Z,101265.94
2023-01-29T01:16:05.627Z,101271.19
2023-01-29T01:16:50.143Z,101274.44
2023-01-29T01:17:38.636Z,101276.00
2023-01-29T01:18:26.309Z,101273.91
2023-01-29T01:19:10.690Z,101277.72
2023-01-29T01:19:55.364Z,101284.81
2023-01-29T01:20:37.108Z,101278.47
2023-01-29T01:21:21.577Z,101286.47
2023-01-29T01:22:06.333Z,101277.16
2023-01-29T01:22:49.361Z,101284.25
2023-01-29T01:23:33.550Z,101282.59
2023-01-29T01:24:17.778Z,101276.66
2023-01-29T01:25:02.330Z,101276.66
2023-01-29T01:25:43.975Z,101275.25
2023-01-29T01:26:28.140Z,101269.03
2023-01-29T01:27:11.937Z,101274.16
2023-01-29T01:27:56.437Z,101268.72
2023-01-29T01:28:40.114Z,101272.03
2023-01-29T01:29:24.264Z,101273.34
2023-01-29T01:30:08.797Z,101273.03
2023-01-29T01:30:50.194Z,101275.25
2023-01-29T01:31:34.423Z,101275.50
2023-01-29T01:32:19.264Z,101276.31
2023-01-29T01:33:07.763Z,101270.63
2023-01-29T01:33:53.657Z,101273.53
2023-01-29T01:35:27.377Z,101261.81
2023-01-29T01:36:10.042Z,101262.97
2023-01-29T01:36:55.213Z,101253.13
2023-01-29T01:37:39.226Z,101255.34
2023-01-29T01:38:22.769Z,101258.00
2023-01-29T01:39:06.001Z,101249.91
2023-01-29T01:39:50.115Z,101256.38
2023-01-29T01:40:36.941Z,101253.56
2023-01-29T01:41:20.640Z,101254.41
2023-01-29T01:42:02.806Z,101249.28
2023-01-29T01:42:49.849Z,101242.69
2023-01-29T01:43:38.269Z,101240.78
2023-01-29T01:44:24.893Z,101236.16
2023-01-29T01:45:14.463Z,101231.03
2023-01-29T01:46:00.972Z,101227.47
2023-01-29T01:46:42.937Z,101228.13
2023-01-29T01:47:27.924Z,101226.16
2023-01-29T01:48:11.702Z,101221.47
2023-01-29T01:48:56.550Z,101223.03
2023-01-29T01:49:41.447Z,101223.03
2023-01-29T01:50:34.527Z,101218.16
2023-01-29T01:51:22.980Z,101224.25
2023-01-29T01:52:11.593Z,101219.88
2023-01-29T01:53:00.024Z,101219.25
2023-01-29T01:53:47.870Z,101220.31
2023-01-29T01:54:35.171Z,101220.31
2023-01-29T01:55:24.231Z,101220.06
2023-01-29T01:56:15.101Z,101217.34
2023-01-29T01:57:00.964Z,101219.88
2023-01-29T01:57:44.025Z,101217.16
2023-01-29T01:58:27.426Z,101224.00
2023-01-29T01:59:13.478Z,101228.13
2023-01-29T01:59:58.415Z,101219.81
2023-01-29T02:00:54.836Z,101227.22
2023-01-29T02:01:40.963Z,101231.84
2023-01-29T02:02:25.744Z,101238.44
2023-01-29T02:03:13.252Z,101234.56
2023-01-29T02:03:58.911Z,101225.56
2023-01-29T02:04:44.839Z,101227.22
2023-01-29T02:05:35.813Z,101226.47
2023-01-29T02:07:10.823Z,101233.25
2023-01-29T02:07:58.237Z,101226.72
2023-01-29T02:09:27.764Z,101236.72
2023-01-29T02:10:12.079Z,101231.84
2023-01-29T02:10:58.735Z,101240.19
2023-01-29T02:11:45.657Z,101233.38
2023-01-29T02:12:36.731Z,101232.03
2023-01-29T02:13:25.250Z,101233.94
2023-01-29T02:14:06.811Z,101231.28
2023-01-29T02:14:57.250Z,101236.72
2023-01-29T02:15:49.008Z,101234.25
2023-01-29T02:16:32.385Z,101239.94
2023-01-29T02:17:20.503Z,101240.19
2023-01-29T02:18:10.051Z,101241.34
2023-01-29T02:18:57.987Z,101238.06
2023-01-29T02:19:43.799Z,101240.19
2023-01-29T02:20:31.606Z,101240.72
2023-01-29T02:21:21.780Z,101235.06
2023-01-29T02:22:09.046Z,101241.03
2023-01-29T02:22:59.392Z,101232.84
2023-01-29T02:23:45.471Z,101243.00
2023-01-29T02:24:31.111Z,101235.91
2023-01-29T02:25:17.970Z,101239.78
2023-01-29T02:26:01.848Z,101235.91
2023-01-29T02:26:45.092Z,101244.66
2023-01-29T02:27:32.363Z,101236.78
2023-01-29T02:28:20.271Z,101234.31
2023-01-29T02:29:15.104Z,101235.84
2023-01-29T02:30:06.596Z,101237.81
2023-01-29T02:30:57.836Z,101245.97
2023-01-29T02:31:37.672Z,101244.91
2023-01-29T02:32:08.887Z,101247.13
2023-01-29T02:32:40.061Z,101243.25
2023-01-29T02:33:11.243Z,101246.47
2023-01-29T02:33:42.513Z,101247.56
2023-01-29T02:34:13.944Z,101250.59
2023-01-29T02:34:45.379Z,101261.00
2023-01-29T02:35:16.869Z,101263.47
2023-01-29T02:35:48.289Z,101252.31
2023-01-29T02:36:19.667Z,101257.75
2023-01-29T02:36:51.055Z,101256.38
2023-01-29T02:37:22.513Z,101255.53
2023-01-29T02:37:53.987Z,101261.81
2023-01-29T02:38:25.388Z,101258.25
2023-01-29T02:38:56.815Z,101258.59
2023-01-29T02:39:28.214Z,101260.50
2023-01-29T02:39:59.648Z,101256.38
2023-01-29T02:40:31.091Z,101259.91
2023-01-29T02:41:02.473Z,101260.75
2023-01-29T02:41:33.959Z,101260.66
2023-01-29T02:42:05.380Z,101263.97
2023-01-29T02:42:36.818Z,101257.19
2023-01-29T02:43:08.220Z,101260.75
2023-01-29T02:43:39.650Z,101262.38
2023-01-29T02:44:11.060Z,101260.50
2023-01-29T02:44:42.602Z,101252.56
2023-01-29T02:45:14.028Z,101255.78
2023-01-29T02:45:45.518Z,101251.41
2023-01-29T02:46:17.051Z,101257.69
2023-01-29T02:46:48.471Z,101250.34
2023-01-29T02:47:19.898Z,101247.13
2023-01-29T02:47:51.330Z,101247.69
2023-01-29T02:48:22.840Z,101245.47
2023-01-29T02:48:54.270Z,101248.75
2023-01-29T02:49:25.719Z,101244.66
2023-01-29T02:49:57.148Z,101244.66
2023-01-29T02:50:28.568Z,101254.91
2023-01-29T02:50:59.963Z,101254.31
2023-01-29T02:51:31.349Z,101251.91
2023-01-29T02:52:02.765Z,101251.91
2023-01-29T02:52:34.244Z,101262.81
2023-01-29T02:53:05.664Z,101254.97
2023-01-29T02:53:37.093Z,101250.34
2023-01-29T02:54:08.738Z,101255.72
2023-01-29T02:54:40.135Z,101251.66
2023-01-29T02:55:11.634Z,101256.88
2023-01-29T02:55:43.064Z,101259.03
2023-01-29T02:56:14.495Z,101253.88
2023-01-29T02:56:45.951Z,101255.53
2023-01-29T02:57:17.379Z,101252.56
2023-01-29T02:57:48.790Z,101258.00
2023-01-29T02:58:20.242Z,101262.31
2023-01-29T02:58:51.676Z,101257.69
2023-01-29T02:59:23.131Z,101260.75
2023-01-29T02:59:54.519Z,101256.03
2023-01-29T03:00:26.062Z,101263.31
2023-01-29T03:00:57.560Z,101261.09
2023-01-29T03:01:29.021Z,101259.53
2023-01-29T03:02:00.499Z,101263.91
2023-01-29T03:02:31.926Z,101259.84
2023-01-29T03:03:03.353Z,101259.28
2023-01-29T03:03:34.777Z,101260.59
2023-01-29T03:04:06.172Z,101258.19
2023-01-29T03:04:37.597Z,101265.78
2023-01-29T03:05:09.228Z,101267.69
2023-01-29T03:05:40.647Z,101261.69
2023-01-29T03:06:12.074Z,101270.16
2023-01-29T03:06:43.525Z,101268.44
2023-01-29T03:07:14.964Z,101274.16
2023-01-29T03:07:46.482Z,101275.53
2023-01-29T03:08:18.013Z,101277.19
2023-01-29T03:08:49.396Z,101269.53
2023-01-29T03:09:20.855Z,101268.69
2023-01-29T03:09:52.230Z,101269.19
2023-01-29T03:10:23.704Z,101262.44
2023-01-29T03:10:55.127Z,101265.22
2023-01-29T03:11:26.505Z,101264.72
2023-01-29T03:11:57.902Z,101266.38
2023-01-29T03:12:29.342Z,101262.56
2023-01-29T03:13:00.792Z,101268.84
2023-01-29T03:13:32.190Z,101264.22
2023-01-29T03:14:03.602Z,101266.69
2023-01-29T03:14:35.061Z,101271.31
2023-01-29T03:15:06.500Z,101274.03
2023-01-29T03:15:37.968Z,101266.69
2023-01-29T03:16:11.189Z,101271.00
2023-01-29T03:16:43.433Z,101263.66
2023-01-29T03:17:14.869Z,101266.13
2023-01-29T03:17:46.301Z,101268.00
2023-01-29T03:18:17.727Z,101266.13
2023-01-29T03:18:49.135Z,101266.69
2023-01-29T03:19:20.530Z,101262.06
2023-01-29T03:19:52.093Z,101265.03
2023-01-29T03:20:23.575Z,101260.66
2023-01-29T03:20:54.959Z,101266.13
2023-01-29T03:21:26.425Z,101257.44
2023-01-29T03:21:57.880Z,101265.88
2023-01-29T03:22:29.293Z,101258.19
2023-01-29T03:23:00.704Z,101271.00
2023-01-29T03:23:32.096Z,101264.47
2023-01-29T03:24:03.563Z,101266.63
2023-01-29T03:24:34.969Z,101258.19
2023-01-29T03:25:06.454Z,101253.31
2023-01-29T03:25:37.971Z,101262.31
2023-01-29T03:26:09.392Z,101259.59
2023-01-29T03:26:40.799Z,101256.28
2023-01-29T03:27:12.221Z,101255.22
2023-01-29T03:27:43.632Z,101257.69
2023-01-29T03:28:15.043Z,101254.66
2023-01-29T03:28:46.479Z,101249.44
2023-01-29T03:29:17.899Z,101251.59
2023-01-29T03:29:49.276Z,101246.97
2023-01-29T03:30:20.714Z,101256.53
2023-01-29T03:30:52.195Z,101242.69
2023-01-29T03:31:23.712Z,101244.91
2023-01-29T03:31:55.239Z,101241.59
2023-01-29T03:32:26.691Z,101245.16
2023-01-29T03:32:58.136Z,101245.16
2023-01-29T03:33:29.537Z,101251.41
2023-01-29T03:34:00.957Z,101248.38
2023-01-29T03:34:32.373Z,101244.81
2023-01-29T03:35:03.826Z,101251.09
2023-01-29T03:35:35.277Z,101244.81
2023-01-29T03:36:06.712Z,101245.16
2023-01-29T03:36:38.148Z,101245.41
2023-01-29T03:37:09.668Z,101247.56
2023-01-29T03:37:41.054Z,101244.25
2023-01-29T03:38:12.481Z,101247.47
2023-01-29T03:38:43.933Z,101245.59
2023-01-29T03:39:15.431Z,101251.03
2023-01-29T03:39:46.844Z,101253.50
2023-01-29T03:40:18.521Z,101258.94
2023-01-29T03:40:50.092Z,101251.34
2023-01-29T03:41:21.551Z,101255.41
2023-01-29T03:41:52.977Z,101257.63
2023-01-29T03:42:24.404Z,101264.97
2023-01-29T03:42:55.842Z,101255.41
2023-01-29T03:43:27.282Z,101260.28
2023-01-29T03:43:58.725Z,101252.19
2023-01-29T03:44:30.123Z,101260.59
2023-01-29T03:45:03.924Z,101258.88
2023-01-29T03:45:35.340Z,101261.28
2023-01-29T03:46:06.824Z,101258.56
2023-01-29T03:46:38.352Z,101253.09
2023-01-29T03:47:09.976Z,101253.38
2023-01-29T03:47:41.379Z,101252.34
2023-01-29T03:48:12.743Z,101252.94
2023-01-29T03:48:44.149Z,101248.88
2023-01-29T03:49:15.543Z,101255.16
2023-01-29T03:49:46.963Z,101247.22
2023-01-29T03:50:18.607Z,101248.31
2023-01-29T03:50:50.139Z,101253.50
2023-01-29T03:51:21.541Z,101246.16
2023-01-29T03:51:53.104Z,101250.28
2023-01-29T03:52:24.503Z,101248.06
2023-01-29T03:52:55.940Z,101249.69
2023-01-29T03:53:27.379Z,101251.34
2023-01-29T03:53:58.788Z,101254.06
2023-01-29T03:54:30.185Z,101246.47
2023-01-29T03:55:01.612Z,101241.03
2023-01-29T03:55:32.968Z,101246.97
2023-01-29T03:56:04.353Z,101244.00
2023-01-29T03:56:35.750Z,101245.84
2023-01-29T03:57:07.215Z,101234.19
2023-01-29T03:57:38.584Z,101242.94
2023-01-29T03:58:09.979Z,101235.84
2023-01-29T03:58:41.615Z,101237.22
2023-01-29T03:59:13.049Z,101230.63
2023-01-29T03:59:44.530Z,101242.28
2023-01-29T04:00:16.267Z,101232.97
2023-01-29T04:00:47.874Z,101238.75
2023-01-29T04:01:19.315Z,101238.00
2023-01-29T04:01:50.811Z,101236.91
2023-01-29T04:02:22.218Z,101229.31
2023-01-29T04:02:53.584Z,101230.13
2023-01-29T04:03:24.975Z,101230.13
2023-01-29T04:03:56.524Z,101223.88
2023-01-29T04:04:28.022Z,101226.78
2023-01-29T04:04:59.516Z,101228.34
2023-01-29T04:05:31.151Z,101226.78
2023-01-29T04:06:02.647Z,101219.75
2023-01-29T04:06:34.099Z,101221.97
2023-01-29T04:07:05.500Z,101223.03
2023-01-29T04:07:36.885Z,101224.13
2023-01-29T04:08:08.268Z,101221.97
2023-01-29T04:08:39.662Z,101224.69
2023-01-29T04:09:11.043Z,101219.25
2023-01-29T04:09:42.426Z,101219.25
2023-01-29T04:10:13.987Z,101220.31
2023-01-29T04:10:45.662Z,101220.00
2023-01-29T04:11:17.160Z,101218.91
2023-01-29T04:11:48.592Z,101218.66
2023-01-29T04:12:19.968Z,101216.78
2023-01-29T04:12:51.459Z,101218.97
2023-01-29T04:13:22.873Z,101214.88
2023-01-29T04:13:54.293Z,101219.75
2023-01-29T04:14:25.712Z,101213.47
2023-01-29T04:14:57.106Z,101218.41
2023-01-29T04:15:28.511Z,101218.59
2023-01-29T04:15:59.964Z,101219.09
2023-01-29T04:16:31.413Z,101215.63
2023-01-29T04:17:02.889Z,101214.28
2023-01-29T04:17:34.278Z,101209.09
2023-01-29T04:18:05.723Z,101211.00
2023-01-29T04:18:37.126Z,101209.28
2023-01-29T04:19:08.590Z,101212.50
2023-01-29T04:19:39.944Z,101206.56
2023-01-29T04:20:11.343Z,101203.25
2023-01-29T04:20:42.851Z,101201.94
2023-01-29T04:21:14.299Z,101206.06
2023-01-29T04:21:45.715Z,101204.41
2023-01-29T04:22:17.094Z,101202.75
2023-01-29T04:22:48.495Z,101198.72
2023-01-29T04:23:19.881Z,101201.75
2023-01-29T04:23:51.276Z,101199.59
2023-01-29T04:24:22.757Z,101204.72
2023-01-29T04:24:54.159Z,101202.00
2023-01-29T04:25:25.573Z,101194.66
2023-01-29T04:25:57.040Z,101203.91
2023-01-29T04:26:28.570Z,101198.16
2023-01-29T04:27:00.021Z,101202.50
2023-01-29T04:27:31.424Z,101198.72
2023-01-29T04:28:02.810Z,101206.63
2023-01-29T04:28:34.280Z,101203.91
2023-01-29T04:29:05.728Z,101202.50
2023-01-29T04:29:37.178Z,101205.56
2023-01-29T04:30:08.601Z,101200.94
2023-01-29T04:30:40.022Z,101204.97
2023-01-29T04:31:11.503Z,101201.94
2023-01-29T04:31:43.085Z,101197.31
2023-01-29T04:32:14.475Z,101197.25
2023-01-29T04:32:45.890Z,101192.13
2023-01-29T04:33:17.360Z,101197.81
2023-01-29T04:33:48.765Z,101195.59
2023-01-29T04:34:20.159Z,101188.56
2023-01-29T04:34:51.588Z,101191.38
2023-01-29T04:35:23.011Z,101190.53
2023-01-29T04:35:54.433Z,101190.88
2023-01-29T04:36:25.925Z,101191.44
2023-01-29T04:36:57.398Z,101191.44
2023-01-29T04:37:28.849Z,101199.84
2023-01-29T04:38:00.260Z,101197.69
2023-01-29T04:38:31.773Z,101203.09
2023-01-29T04:39:03.196Z,101199.84
2023-01-29T04:39:34.633Z,101210.50
2023-01-29T04:40:06.075Z,101201.75
2023-01-29T04:40:37.483Z,101196.75
2023-01-29T04:41:08.879Z,101199.47
2023-01-29T04:41:40.301Z,101201.13
2023-01-29T04:42:11.788Z,101203.00
2023-01-29T04:42:43.318Z,101197.81
2023-01-29T04:43:14.705Z,101199.97
2023-01-29T04:43:46.161Z,101199.41
2023-01-29T04:44:17.539Z,101194.22
2023-01-29T04:44:48.967Z,101195.03
2023-01-29T04:45:20.379Z,101193.69
2023-01-29T04:45:51.806Z,101183.88
2023-01-29T04:46:23.253Z,101185.34
2023-01-29T04:46:54.670Z,101184.28
2023-01-29T04:47:26.323Z,101175.84
2023-01-29T04:47:57.776Z,101182.63
2023-01-29T04:48:29.203Z,101174.19
2023-01-29T04:49:00.609Z,101180.22
2023-01-29T04:49:32.009Z,101179.16
2023-01-29T04:50:03.404Z,101176.16
2023-01-29T04:50:34.792Z,101174.53
2023-01-29T04:51:06.170Z,101169.63
2023-01-29T04:51:37.569Z,101172.38
2023-01-29T04:52:09.018Z,101171.53
2023-01-29T04:52:40.531Z,101173.69
2023-01-29T04:53:11.903Z,101174.44
2023-01-29T04:53:43.313Z,101175.53
2023-01-29T04:54:14.738Z,101176.94
2023-01-29T04:54:46.199Z,101176.09
2023-01-29T04:55:17.648Z,101173.94
2023-01-29T04:55:49.045Z,101180.78
2023-01-29T04:56:20.479Z,101177.00
2023-01-29T04:56:51.910Z,101179.16
2023-01-29T04:57:23.316Z,101175.09
2023-01-29T04:57:54.719Z,101173.19
2023-01-29T04:58:26.170Z,101173.63
2023-01-29T04:58:57.622Z,101177.94
2023-01-29T04:59:29.067Z,101175.53
2023-01-29T05:00:00.514Z,101169.56
2023-01-29T05:00:31.943Z,101166.28
2023-01-29T05:01:03.588Z,101163.81
2023-01-29T05:01:35.167Z,101169.84
2023-01-29T05:02:06.577Z,101174.44
2023-01-29T05:02:37.990Z,101174.97
2023-01-29T05:03:09.438Z,101175.47
2023-01-29T05:03:40.880Z,101173.38
2023-01-29T05:04:12.353Z,101175.53
2023-01-29T05:04:43.762Z,101175.84
2023-01-29T05:05:15.209Z,101176.66
2023-01-29T05:05:46.641Z,101171.72
2023-01-29T05:06:18.182Z,101167.69
2023-01-29T05:06:49.581Z,101168.75
2023-01-29T05:07:20.984Z,101161.41
2023-01-29T05:07:52.409Z,101164.88
2023-01-29T05:08:23.842Z,101164.63
2023-01-29T05:08:55.459Z,101167.44
2023-01-29T05:09:26.855Z,101157.59
2023-01-29T05:09:58.278Z,101163.06
2023-01-29T05:10:29.715Z,101167.44
2023-01-29T05:11:01.221Z,101167.44
2023-01-29T05:11:32.655Z,101162.56
2023-01-29T05:12:04.105Z,101163.63
2023-01-29T05:12:35.511Z,101165.78
2023-01-29T05:13:06.910Z,101169.91
2023-01-29T05:13:39.575Z,101156.78
2023-01-29T05:14:11.063Z,101154.88
2023-01-29T05:14:42.460Z,101153.25
2023-01-29T05:15:13.847Z,101147.47
2023-01-29T05:15:45.318Z,101146.41
2023-01-29T05:16:16.911Z,101143.41
2023-01-29T05:16:48.385Z,101141.25
2023-01-29T05:17:19.810Z,101133.91
2023-01-29T05:17:51.230Z,101142.66
2023-01-29T05:18:22.646Z,101136.63
2023-01-29T05:18:54.063Z,101136.63
2023-01-29T05:19:25.466Z,101140.19
2023-01-29T05:19:56.924Z,101135.56
2023-01-29T05:20:28.309Z,101139.38
2023-01-29T05:20:59.797Z,101134.19
2023-01-29T05:21:31.303Z,101136.84
2023-01-29T05:22:02.700Z,101132.47
2023-01-29T05:22:34.128Z,101124.81
2023-01-29T05:23:05.514Z,101131.06
2023-01-29T05:23:36.910Z,101131.97
2023-01-29T05:24:08.366Z,101130.38
2023-01-29T05:24:39.802Z,101128.72
2023-01-29T05:25:11.181Z,101133.09
2023-01-29T05:25:42.600Z,101133.09
2023-01-29T05:26:14.022Z,101128.47
2023-01-29T05:26:45.521Z,101131.44
2023-01-29T05:27:16.928Z,101129.81
2023-01-29T05:27:48.372Z,101128.16
2023-01-29T05:28:19.788Z,101122.47
2023-01-29T05:28:51.184Z,101120.00
2023-01-29T05:29:22.646Z,101118.09
2023-01-29T05:29:54.050Z,101123.53
2023-01-29T05:30:25.458Z,101123.78
2023-01-29T05:30:56.976Z,101120.50
2023-01-29T05:31:28.494Z,101116.13
2023-01-29T05:32:00.063Z,101120.75
2023-01-29T05:32:31.518Z,101117.97
2023-01-29T05:33:02.939Z,101120.44
2023-01-29T05:33:34.348Z,101113.97
2023-01-29T05:34:05.779Z,101115.63
2023-01-29T05:34:37.165Z,101109.91
2023-01-29T05:35:08.533Z,101115.06
2023-01-29T05:35:39.952Z,101116.19
2023-01-29T05:36:11.413Z,101116.44
2023-01-29T05:36:42.843Z,101120.81
2023-01-29T05:37:14.290Z,101112.91
2023-01-29T05:37:45.708Z,101124.88
2023-01-29T05:38:17.193Z,101121.63
2023-01-29T05:38:48.630Z,101120.81
2023-01-29T05:39:20.107Z,101121.06
2023-01-29T05:39:51.529Z,101125.44
2023-01-29T05:40:22.892Z,101122.97
2023-01-29T05:40:54.365Z,101123.53
2023-01-29T05:41:25.772Z,101124.34
2023-01-29T05:41:57.158Z,101125.44
2023-01-29T05:42:28.628Z,101121.06
2023-01-29T05:43:00.037Z,101123.53
2023-01-29T05:43:31.474Z,101124.09
2023-01-29T05:44:02.887Z,101129.25
2023-01-29T05:44:34.369Z,101128.41
2023-01-29T05:45:05.821Z,101127.06
2023-01-29T05:45:37.250Z,101124.09
2023-01-29T05:46:08.697Z,101128.47
2023-01-29T05:46:40.137Z,101131.44
2023-01-29T05:47:11.654Z,101135.19
2023-01-29T05:47:43.240Z,101118.91
2023-01-29T05:48:14.683Z,101126.00
2023-01-29T05:48:46.072Z,101119.47
2023-01-29T05:49:17.540Z,101118.91
2023-01-29T05:49:48.922Z,101121.06
2023-01-29T05:50:20.394Z,101118.09
2023-01-29T05:50:51.838Z,101120.56
2023-01-29T05:51:23.320Z,101118.91
2023-01-29T05:51:54.731Z,101124.34
2023-01-29T05:52:26.115Z,101126.81
2023-01-29T05:52:57.549Z,101124.28
2023-01-29T05:53:28.985Z,101125.13
2023-01-29T05:54:00.401Z,101126.25
2023-01-29T05:54:31.826Z,101138.22
2023-01-29T05:55:03.198Z,101139.06
2023-01-29T05:55:34.568Z,101139.06
2023-01-29T05:56:05.997Z,101140.94
2023-01-29T05:56:37.463Z,101143.41
2023-01-29T05:57:08.886Z,101134.19
2023-01-29T05:57:40.318Z,101141.25
2023-01-29T05:58:11.679Z,101137.72
2023-01-29T05:58:43.075Z,101143.16
2023-01-29T05:59:14.441Z,101142.34
2023-01-29T05:59:45.904Z,101143.16
2023-01-29T06:00:17.541Z,101146.72
2023-01-29T06:00:49.126Z,101148.63
2023-01-29T06:01:20.545Z,101151.09
2023-01-29T06:01:52.033Z,101151.34
2023-01-29T06:02:23.481Z,101152.66
2023-01-29T06:02:54.924Z,101145.31
2023-01-29T06:03:26.362Z,101161.66
2023-01-29T06:03:57.784Z,101158.38
2023-01-29T06:04:29.174Z,101152.66
2023-01-29T06:05:00.688Z,101165.47
2023-01-29T06:05:32.115Z,101153.69
2023-01-29T06:06:03.595Z,101164.00
2023-01-29T06:06:35.010Z,101163.25
2023-01-29T06:07:06.481Z,101154.25
2023-01-29T06:07:37.906Z,101163.00
2023-01-29T06:08:09.314Z,101159.94
2023-01-29T06:08:40.707Z,101168.13
2023-01-29T06:09:12.126Z,101168.69
2023-01-29T06:09:43.605Z,101166.78
2023-01-29T06:10:15.449Z,101168.19
2023-01-29T06:10:47.099Z,101170.66
2023-01-29T06:11:18.533Z,101166.78
2023-01-29T06:11:50.001Z,101167.47
2023-01-29T06:12:21.452Z,101171.28
2023-01-29T06:12:52.932Z,101168.31
2023-01-29T06:13:24.380Z,101171.59
2023-01-29T06:13:55.800Z,101175.06
2023-01-29T06:14:27.225Z,101173.44
2023-01-29T06:14:58.627Z,101166.09
2023-01-29T06:15:30.039Z,101167.16
2023-01-29T06:16:01.529Z,101162.53
2023-01-29T06:16:33.034Z,101167.72
2023-01-29T06:17:04.510Z,101166.41
2023-01-29T06:17:35.919Z,101168.56
2023-01-29T06:18:07.367Z,101163.44
2023-01-29T06:18:38.771Z,101169.13
2023-01-29T06:19:10.222Z,101169.44
2023-01-29T06:19:41.641Z,101176.53
2023-01-29T06:20:13.178Z,101169.19
2023-01-29T06:20:44.654Z,101186.69
2023-01-29T06:21:16.547Z,101174.06
2023-01-29T06:21:48.414Z,101172.50
2023-01-29T06:22:19.797Z,101173.56
2023-01-29T06:22:51.195Z,101179.00
2023-01-29T06:23:22.658Z,101185.28
2023-01-29T06:23:54.132Z,101181.47
2023-01-29T06:24:25.730Z,101182.31
2023-01-29T06:24:57.195Z,101178.75
2023-01-29T06:25:28.651Z,101177.03
2023-01-29T06:26:00.112Z,101181.41
2023-01-29T06:26:31.655Z,101179.25
2023-01-29T06:27:03.059Z,101186.03
2023-01-29T06:27:34.426Z,101184.97
2023-01-29T06:28:05.851Z,101182.81
2023-01-29T06:28:37.233Z,101183.38
2023-01-29T06:29:08.641Z,101183.06
2023-01-29T06:29:40.078Z,101190.66
2023-01-29T06:30:11.486Z,101179.44
2023-01-29T06:30:42.963Z,101185.22
2023-01-29T06:32:05.828Z,101175.72
2023-01-29T06:32:37.315Z,101179.50
2023-01-29T06:33:08.753Z,101183.06
2023-01-29T06:33:40.252Z,101174.66
2023-01-29T06:34:11.640Z,101179.59
2023-01-29T06:34:43.151Z,101183.13
2023-01-29T06:35:14.582Z,101182.56
2023-01-29T06:35:46.016Z,101185.84
2023-01-29T06:36:17.421Z,101182.31
2023-01-29T06:36:48.867Z,101185.78
2023-01-29T06:37:20.364Z,101188.75
2023-01-29T06:37:51.773Z,101189.00
2023-01-29T06:38:23.257Z,101192.31
2023-01-29T06:38:54.695Z,101193.94
2023-01-29T06:39:26.136Z,101189.84
2023-01-29T06:39:57.550Z,101191.66
2023-01-29T06:40:28.958Z,101186.72
2023-01-29T06:41:00.350Z,101180.78
2023-01-29T06:41:31.774Z,101184.56
2023-01-29T06:42:03.232Z,101181.34
2023-01-29T06:42:34.632Z,101178.88
2023-01-29T06:43:06.080Z,101174.56
2023-01-29T06:43:37.563Z,101176.53
2023-01-29T06:44:09.009Z,101174.06
2023-01-29T06:44:40.394Z,101170.84
2023-01-29T06:45:11.842Z,101171.66
2023-01-29T06:45:43.252Z,101171.41
2023-01-29T06:46:14.733Z,101173.06
2023-01-29T06:46:46.090Z,101176.03
2023-01-29T06:47:17.576Z,101170.84
2023-01-29T06:47:48.965Z,101182.81
2023-01-29T06:48:20.421Z,101177.31
2023-01-29T06:48:51.851Z,101181.59
2023-01-29T06:49:23.258Z,101178.56
2023-01-29T06:49:54.677Z,101185.06